createdAt,value
2022-08-02T00:04:15.388Z,2.40
2022-08-02T00:14:16.659Z,1.80
2022-08-02T00:24:30.071Z,2.00
2022-08-02T00:34:34.030Z,2.28
2022-08-02T00:44:38.830Z,1.80
2022-08-02T00:54:40.141Z,2.00
2022-08-02T01:04:41.602Z,1.80
2022-08-02T01:14:44.217Z,1.95
2022-08-02T01:24:51.685Z,2.10
2022-08-02T01:34:54.435Z,2.07
2022-08-02T01:44:58.196Z,2.13
2022-08-02T01:55:01.340Z,2.20
2022-08-02T02:05:03.059Z,2.45
2022-08-02T02:15:04.745Z,2.10
2022-08-02T02:25:06.837Z,1.98
2022-08-02T02:35:08.386Z,2.13
2022-08-02T02:45:09.979Z,2.53
2022-08-02T02:55:13.257Z,2.40
2022-08-02T03:05:14.506Z,2.63
2022-08-02T03:15:15.787Z,2.35
2022-08-02T03:25:17.167Z,2.33
2022-08-02T03:35:23.349Z,3.15
2022-08-02T03:45:25.659Z,2.90
2022-08-02T03:55:26.951Z,3.17
2022-08-02T04:05:28.183Z,2.90
2022-08-02T04:15:29.483Z,3.50
2022-08-02T04:25:35.598Z,3.70
2022-08-02T04:35:41.579Z,3.13
2022-08-02T04:45:42.872Z,3.10
2022-08-02T04:55:44.121Z,3.60
2022-08-02T05:05:45.351Z,4.45
2022-08-02T05:15:50.446Z,4.50
2022-08-02T05:25:51.709Z,4.00
2022-08-02T05:35:54.990Z,4.13
2022-08-02T05:45:56.595Z,4.22
2022-08-02T05:56:06.642Z,4.05
2022-08-02T06:06:13.249Z,3.08
2022-08-02T06:16:14.900Z,3.45
2022-08-02T06:26:16.267Z,2.88
2022-08-02T06:36:36.369Z,2.75
2022-08-02T06:47:09.811Z,1.60
2022-08-02T06:56:59.271Z,2.20
2022-08-02T07:07:00.970Z,2.60
2022-08-02T07:17:02.586Z,2.47
2022-08-02T07:27:12.469Z,2.17
2022-08-02T07:37:35.657Z,2.03
2022-08-02T07:47:38.912Z,1.10
2022-08-02T07:57:45.901Z,1.40
2022-08-02T08:07:47.617Z,1.45
2022-08-02T08:17:48.908Z,0.93
2022-08-02T08:27:51.481Z,1.00
2022-08-02T08:37:52.725Z,0.80
2022-08-02T08:48:00.700Z,0.82
2022-08-02T08:58:02.490Z,1.10
2022-08-02T09:08:04.044Z,0.82
2022-08-02T09:18:06.058Z,0.98
2022-08-02T09:28:07.371Z,1.02
2022-08-02T09:38:12.052Z,1.20
2022-08-02T09:48:13.305Z,1.10
2022-08-02T09:58:18.240Z,1.00
2022-08-02T10:08:19.580Z,0.85
2022-08-02T10:18:37.666Z,1.00
2022-08-02T10:28:39.822Z,1.02
2022-08-02T10:38:41.102Z,0.77
2022-08-02T10:49:01.454Z,1.30
2022-08-02T10:59:23.298Z,1.33
2022-08-02T11:09:33.942Z,0.63
2022-08-02T11:19:36.192Z,0.85
2022-08-02T11:29:43.766Z,1.00
2022-08-02T11:39:50.262Z,0.90
2022-08-02T11:49:51.673Z,0.90
2022-08-02T11:59:53.391Z,1.10
2022-08-02T12:09:58.701Z,0.88
2022-08-02T12:19:59.963Z,1.00
2022-08-02T12:30:11.174Z,1.10
2022-08-02T12:40:26.187Z,0.82
2022-08-02T12:50:29.799Z,0.90
2022-08-02T13:00:31.769Z,1.10
2022-08-02T13:10:33.135Z,1.10
2022-08-02T13:20:34.674Z,1.25
2022-08-02T13:30:35.913Z,0.80
2022-08-02T13:41:04.240Z,1.00
2022-08-02T13:51:11.809Z,1.20
2022-08-02T14:01:16.262Z,1.25
2022-08-02T14:11:17.674Z,1.08
2022-08-02T14:21:18.914Z,1.05
2022-08-02T14:31:20.171Z,0.95
2022-08-02T14:41:24.153Z,0.82
2022-08-02T14:51:25.463Z,1.13
2022-08-02T15:01:26.793Z,1.27
2022-08-02T15:11:28.109Z,1.30
2022-08-02T15:21:52.713Z,1.10
2022-08-02T15:31:51.168Z,1.08
2022-08-02T15:41:52.413Z,1.10
2022-08-02T15:51:53.887Z,1.30
2022-08-02T16:01:55.426Z,1.38
2022-08-02T16:11:56.741Z,1.50
2022-08-02T16:21:58.054Z,1.92
2022-08-02T16:31:59.392Z,1.67
2022-08-02T16:42:00.647Z,1.15
2022-08-02T16:52:02.111Z,1.67
2022-08-02T17:02:15.334Z,1.40
2022-08-02T17:12:22.462Z,1.20
2022-08-02T17:22:24.017Z,1.35
2022-08-02T17:32:27.293Z,1.42
2022-08-02T17:42:30.569Z,1.65
2022-08-02T17:52:50.634Z,1.80
2022-08-02T18:02:55.605Z,1.35
2022-08-02T18:12:57.130Z,2.28
2022-08-02T18:22:59.094Z,1.35
2022-08-02T18:33:59.848Z,2.85
2022-08-02T18:43:25.739Z,1.10
2022-08-02T18:53:39.144Z,1.65
2022-08-02T19:03:49.281Z,1.30
2022-08-02T19:14:04.467Z,1.35
2022-08-02T19:24:05.838Z,1.52
2022-08-02T19:34:08.066Z,1.20
2022-08-02T19:44:22.906Z,1.67
2022-08-02T20:04:53.085Z,1.40
2022-08-02T20:14:54.612Z,1.30
2022-08-02T20:24:56.448Z,1.20
2022-08-02T20:34:57.982Z,1.23
2022-08-02T20:44:59.347Z,1.25
2022-08-02T20:55:01.087Z,1.30
2022-08-02T21:05:08.045Z,1.30
2022-08-02T21:15:19.225Z,1.25
2022-08-02T21:25:42.378Z,2.40
2022-08-02T21:35:43.354Z,1.50
2022-08-02T21:45:53.834Z,1.20
2022-08-02T21:55:57.944Z,1.58
2022-08-02T22:06:02.553Z,1.13
2022-08-02T22:16:05.999Z,1.42
2022-08-02T22:26:07.349Z,1.42
2022-08-02T22:36:13.872Z,1.20
2022-08-02T22:46:16.771Z,1.58
2022-08-02T22:56:18.102Z,1.50
2022-08-02T22:59:07.050Z,1.48
2022-08-02T23:06:22.702Z,1.67
2022-08-02T23:16:42.739Z,1.60
2022-08-02T23:26:44.461Z,1.80
2022-08-02T23:36:45.826Z,1.42
2022-08-02T23:46:47.113Z,1.58
2022-08-02T23:56:48.521Z,1.67
